sensor_id;sensor_type;location;lat;lon;timestamp;temperature;humidity
69006;SHT31;56061;51.748;19.620;2022-11-03T00:01:41;8.55;85.24
69006;SHT31;56061;51.748;19.620;2022-11-03T00:04:11;8.54;85.20
69006;SHT31;56061;51.748;19.620;2022-11-03T00:06:40;8.53;85.26
69006;SHT31;56061;51.748;19.620;2022-11-03T00:09:09;8.50;85.15
69006;SHT31;56061;51.748;19.620;2022-11-03T00:11:40;8.47;85.20
69006;SHT31;56061;51.748;19.620;2022-11-03T00:14:09;8.44;85.23
69006;SHT31;56061;51.748;19.620;2022-11-03T00:16:37;8.43;85.25
69006;SHT31;56061;51.748;19.620;2022-11-03T00:19:05;8.42;85.29
69006;SHT31;56061;51.748;19.620;2022-11-03T00:21:33;8.43;85.29
69006;SHT31;56061;51.748;19.620;2022-11-03T00:24:00;8.43;85.30
69006;SHT31;56061;51.748;19.620;2022-11-03T00:26:31;8.40;85.28
69006;SHT31;56061;51.748;19.620;2022-11-03T00:29:04;8.36;85.35
69006;SHT31;56061;51.748;19.620;2022-11-03T00:31:37;8.33;85.43
69006;SHT31;56061;51.748;19.620;2022-11-03T00:34:06;8.30;85.41
69006;SHT31;56061;51.748;19.620;2022-11-03T00:36:38;8.27;85.47
69006;SHT31;56061;51.748;19.620;2022-11-03T00:39:07;8.26;85.50
69006;SHT31;56061;51.748;19.620;2022-11-03T00:41:34;8.25;85.50
69006;SHT31;56061;51.748;19.620;2022-11-03T00:44:00;8.26;85.36
69006;SHT31;56061;51.748;19.620;2022-11-03T00:46:27;8.24;85.47
69006;SHT31;56061;51.748;19.620;2022-11-03T00:48:55;8.20;85.59
69006;SHT31;56061;51.748;19.620;2022-11-03T00:51:26;8.18;85.59
69006;SHT31;56061;51.748;19.620;2022-11-03T00:54:00;8.14;85.65
69006;SHT31;56061;51.748;19.620;2022-11-03T00:56:30;8.08;85.70
69006;SHT31;56061;51.748;19.620;2022-11-03T00:59:00;8.05;85.82
69006;SHT31;56061;51.748;19.620;2022-11-03T01:01:39;8.01;85.90
69006;SHT31;56061;51.748;19.620;2022-11-03T01:04:13;8.00;85.98
69006;SHT31;56061;51.748;19.620;2022-11-03T01:07:01;7.99;85.99
69006;SHT31;56061;51.748;19.620;2022-11-03T01:09:39;7.97;86.02
69006;SHT31;56061;51.748;19.620;2022-11-03T01:17:19;7.93;86.12
69006;SHT31;56061;51.748;19.620;2022-11-03T01:19:49;7.89;86.13
69006;SHT31;56061;51.748;19.620;2022-11-03T01:22:16;7.87;86.17
69006;SHT31;56061;51.748;19.620;2022-11-03T01:24:44;7.86;86.15
69006;SHT31;56061;51.748;19.620;2022-11-03T01:27:12;7.84;86.18
69006;SHT31;56061;51.748;19.620;2022-11-03T01:29:42;7.82;86.22
69006;SHT31;56061;51.748;19.620;2022-11-03T01:32:09;7.82;86.28
69006;SHT31;56061;51.748;19.620;2022-11-03T01:54:59;7.64;86.25
69006;SHT31;56061;51.748;19.620;2022-11-03T01:58:22;7.60;86.15
69006;SHT31;56061;51.748;19.620;2022-11-03T02:01:15;7.59;86.18
69006;SHT31;56061;51.748;19.620;2022-11-03T02:03:46;7.54;86.26
69006;SHT31;56061;51.748;19.620;2022-11-03T02:06:18;7.52;86.33
69006;SHT31;56061;51.748;19.620;2022-11-03T02:08:51;7.48;86.17
69006;SHT31;56061;51.748;19.620;2022-11-03T02:11:26;7.44;86.17
69006;SHT31;56061;51.748;19.620;2022-11-03T02:14:11;7.41;86.23
69006;SHT31;56061;51.748;19.620;2022-11-03T02:16:39;7.40;86.30
69006;SHT31;56061;51.748;19.620;2022-11-03T02:19:26;7.37;86.23
69006;SHT31;56061;51.748;19.620;2022-11-03T02:24:49;7.34;86.30
69006;SHT31;56061;51.748;19.620;2022-11-03T02:27:33;7.29;86.34
69006;SHT31;56061;51.748;19.620;2022-11-03T02:29:59;7.26;86.35
69006;SHT31;56061;51.748;19.620;2022-11-03T02:32:35;7.21;86.26
69006;SHT31;56061;51.748;19.620;2022-11-03T02:35:32;7.19;86.30
69006;SHT31;56061;51.748;19.620;2022-11-03T02:38:08;7.18;86.30
69006;SHT31;56061;51.748;19.620;2022-11-03T02:40:44;7.16;86.29
69006;SHT31;56061;51.748;19.620;2022-11-03T02:43:15;7.13;86.30
69006;SHT31;56061;51.748;19.620;2022-11-03T02:45:45;7.09;86.27
69006;SHT31;56061;51.748;19.620;2022-11-03T02:48:14;7.06;86.31
69006;SHT31;56061;51.748;19.620;2022-11-03T02:50:43;7.01;86.35
69006;SHT31;56061;51.748;19.620;2022-11-03T02:53:12;6.95;86.40
69006;SHT31;56061;51.748;19.620;2022-11-03T03:04:25;6.79;86.37
69006;SHT31;56061;51.748;19.620;2022-11-03T03:07:02;6.74;86.34
69006;SHT31;56061;51.748;19.620;2022-11-03T03:09:40;6.69;86.40
69006;SHT31;56061;51.748;19.620;2022-11-03T03:12:15;6.64;86.47
69006;SHT31;56061;51.748;19.620;2022-11-03T03:14:45;6.58;86.51
69006;SHT31;56061;51.748;19.620;2022-11-03T03:17:23;6.52;86.55
69006;SHT31;56061;51.748;19.620;2022-11-03T03:20:03;6.47;86.69
69006;SHT31;56061;51.748;19.620;2022-11-03T03:22:59;6.43;86.77
69006;SHT31;56061;51.748;19.620;2022-11-03T03:25:39;6.41;86.75
69006;SHT31;56061;51.748;19.620;2022-11-03T03:28:18;6.40;86.75
69006;SHT31;56061;51.748;19.620;2022-11-03T03:30:52;6.38;86.72
69006;SHT31;56061;51.748;19.620;2022-11-03T03:33:22;6.36;86.80
69006;SHT31;56061;51.748;19.620;2022-11-03T03:35:58;6.34;86.92
69006;SHT31;56061;51.748;19.620;2022-11-03T03:38:32;6.30;86.87
69006;SHT31;56061;51.748;19.620;2022-11-03T03:41:05;6.27;86.94
69006;SHT31;56061;51.748;19.620;2022-11-03T03:43:37;6.23;86.99
69006;SHT31;56061;51.748;19.620;2022-11-03T03:46:07;6.21;87.14
69006;SHT31;56061;51.748;19.620;2022-11-03T03:48:38;6.18;87.20
69006;SHT31;56061;51.748;19.620;2022-11-03T03:51:05;6.16;87.19
69006;SHT31;56061;51.748;19.620;2022-11-03T03:53:32;6.13;87.12
69006;SHT31;56061;51.748;19.620;2022-11-03T03:55:58;6.09;87.02
69006;SHT31;56061;51.748;19.620;2022-11-03T03:58:25;6.06;86.91
69006;SHT31;56061;51.748;19.620;2022-11-03T04:00:51;6.03;86.83
69006;SHT31;56061;51.748;19.620;2022-11-03T04:03:19;5.99;86.85
69006;SHT31;56061;51.748;19.620;2022-11-03T04:05:50;5.94;86.89
69006;SHT31;56061;51.748;19.620;2022-11-03T04:08:19;5.89;86.94
69006;SHT31;56061;51.748;19.620;2022-11-03T04:10:45;5.83;86.94
69006;SHT31;56061;51.748;19.620;2022-11-03T04:13:31;5.78;86.98
69006;SHT31;56061;51.748;19.620;2022-11-03T04:16:17;5.75;87.01
69006;SHT31;56061;51.748;19.620;2022-11-03T04:19:02;5.73;87.12
69006;SHT31;56061;51.748;19.620;2022-11-03T04:21:47;5.72;87.10
69006;SHT31;56061;51.748;19.620;2022-11-03T04:24:32;5.70;87.14
69006;SHT31;56061;51.748;19.620;2022-11-03T04:27:01;5.67;87.23
69006;SHT31;56061;51.748;19.620;2022-11-03T04:29:51;5.60;87.16
69006;SHT31;56061;51.748;19.620;2022-11-03T04:32:21;5.55;87.33
69006;SHT31;56061;51.748;19.620;2022-11-03T04:34:47;5.50;87.46
69006;SHT31;56061;51.748;19.620;2022-11-03T04:37:14;5.44;87.50
69006;SHT31;56061;51.748;19.620;2022-11-03T04:39:41;5.41;87.50
69006;SHT31;56061;51.748;19.620;2022-11-03T04:42:20;5.39;87.45
69006;SHT31;56061;51.748;19.620;2022-11-03T04:44:48;5.36;87.39
69006;SHT31;56061;51.748;19.620;2022-11-03T04:47:15;5.34;87.40
69006;SHT31;56061;51.748;19.620;2022-11-03T04:49:43;5.33;87.24
69006;SHT31;56061;51.748;19.620;2022-11-03T04:52:17;5.29;86.84
69006;SHT31;56061;51.748;19.620;2022-11-03T04:54:46;5.25;86.72
69006;SHT31;56061;51.748;19.620;2022-11-03T04:57:17;5.22;86.74
69006;SHT31;56061;51.748;19.620;2022-11-03T04:59:44;5.19;86.87
69006;SHT31;56061;51.748;19.620;2022-11-03T05:02:16;5.16;87.04
69006;SHT31;56061;51.748;19.620;2022-11-03T05:04:46;5.12;87.21
69006;SHT31;56061;51.748;19.620;2022-11-03T05:07:28;5.09;87.44
69006;SHT31;56061;51.748;19.620;2022-11-03T05:09:59;5.09;87.55
69006;SHT31;56061;51.748;19.620;2022-11-03T05:12:28;5.09;87.67
69006;SHT31;56061;51.748;19.620;2022-11-03T05:14:56;5.11;87.69
69006;SHT31;56061;51.748;19.620;2022-11-03T05:17:25;5.12;87.60
69006;SHT31;56061;51.748;19.620;2022-11-03T05:19:55;5.11;87.55
69006;SHT31;56061;51.748;19.620;2022-11-03T05:22:33;5.09;87.48
69006;SHT31;56061;51.748;19.620;2022-11-03T05:25:05;5.06;87.53
69006;SHT31;56061;51.748;19.620;2022-11-03T05:28:00;5.03;87.78
69006;SHT31;56061;51.748;19.620;2022-11-03T05:30:26;4.99;87.61
69006;SHT31;56061;51.748;19.620;2022-11-03T05:32:53;4.92;86.96
69006;SHT31;56061;51.748;19.620;2022-11-03T05:35:20;4.85;86.54
69006;SHT31;56061;51.748;19.620;2022-11-03T05:37:48;4.80;86.37
69006;SHT31;56061;51.748;19.620;2022-11-03T05:40:25;4.77;86.29
69006;SHT31;56061;51.748;19.620;2022-11-03T05:42:53;4.76;86.17
69006;SHT31;56061;51.748;19.620;2022-11-03T05:45:28;4.76;86.07
69006;SHT31;56061;51.748;19.620;2022-11-03T05:48:00;4.69;85.37
69006;SHT31;56061;51.748;19.620;2022-11-03T05:50:32;4.58;85.05
69006;SHT31;56061;51.748;19.620;2022-11-03T05:55:56;4.35;84.90
69006;SHT31;56061;51.748;19.620;2022-11-03T05:58:32;4.25;85.16
69006;SHT31;56061;51.748;19.620;2022-11-03T06:01:15;4.23;85.69
69006;SHT31;56061;51.748;19.620;2022-11-03T06:03:48;4.19;85.36
69006;SHT31;56061;51.748;19.620;2022-11-03T06:06:28;4.14;85.15
69006;SHT31;56061;51.748;19.620;2022-11-03T06:09:02;4.10;85.08
69006;SHT31;56061;51.748;19.620;2022-11-03T06:11:39;4.07;85.33
69006;SHT31;56061;51.748;19.620;2022-11-03T06:14:25;4.06;85.50
69006;SHT31;56061;51.748;19.620;2022-11-03T06:16:56;4.05;85.49
69006;SHT31;56061;51.748;19.620;2022-11-03T06:19:28;4.03;85.41
69006;SHT31;56061;51.748;19.620;2022-11-03T06:24:53;3.97;85.43
69006;SHT31;56061;51.748;19.620;2022-11-03T06:27:25;3.95;85.53
69006;SHT31;56061;51.748;19.620;2022-11-03T06:29:58;3.93;85.67
69006;SHT31;56061;51.748;19.620;2022-11-03T06:32:44;3.95;85.99
69006;SHT31;56061;51.748;19.620;2022-11-03T06:35:11;3.99;86.12
69006;SHT31;56061;51.748;19.620;2022-11-03T06:37:39;4.04;86.01
69006;SHT31;56061;51.748;19.620;2022-11-03T06:42:34;4.17;86.12
69006;SHT31;56061;51.748;19.620;2022-11-03T06:45:11;4.22;86.10
69006;SHT31;56061;51.748;19.620;2022-11-03T06:47:58;4.29;86.34
69006;SHT31;56061;51.748;19.620;2022-11-03T06:50:28;4.39;86.63
69006;SHT31;56061;51.748;19.620;2022-11-03T06:53:00;4.51;87.25
69006;SHT31;56061;51.748;19.620;2022-11-03T06:55:30;4.66;87.76
69006;SHT31;56061;51.748;19.620;2022-11-03T06:58:06;4.80;88.01
69006;SHT31;56061;51.748;19.620;2022-11-03T07:00:48;4.97;88.19
69006;SHT31;56061;51.748;19.620;2022-11-03T07:03:26;5.12;88.42
69006;SHT31;56061;51.748;19.620;2022-11-03T07:05:59;5.31;88.63
69006;SHT31;56061;51.748;19.620;2022-11-03T07:08:38;5.49;88.76
69006;SHT31;56061;51.748;19.620;2022-11-03T07:13:47;5.82;88.72
69006;SHT31;56061;51.748;19.620;2022-11-03T07:16:21;5.97;88.78
69006;SHT31;56061;51.748;19.620;2022-11-03T07:18:59;6.09;88.71
69006;SHT31;56061;51.748;19.620;2022-11-03T07:21:36;6.21;88.66
69006;SHT31;56061;51.748;19.620;2022-11-03T07:24:17;6.31;88.54
69006;SHT31;56061;51.748;19.620;2022-11-03T07:26:50;6.44;88.45
69006;SHT31;56061;51.748;19.620;2022-11-03T07:29:24;6.55;88.36
69006;SHT31;56061;51.748;19.620;2022-11-03T07:31:54;6.64;88.30
69006;SHT31;56061;51.748;19.620;2022-11-03T07:34:26;6.73;88.27
69006;SHT31;56061;51.748;19.620;2022-11-03T07:36:58;6.83;88.23
69006;SHT31;56061;51.748;19.620;2022-11-03T07:39:27;6.91;88.10
69006;SHT31;56061;51.748;19.620;2022-11-03T07:42:09;6.97;87.95
69006;SHT31;56061;51.748;19.620;2022-11-03T07:44:43;7.04;87.95
69006;SHT31;56061;51.748;19.620;2022-11-03T07:47:10;7.11;87.92
69006;SHT31;56061;51.748;19.620;2022-11-03T07:49:41;7.19;87.78
69006;SHT31;56061;51.748;19.620;2022-11-03T07:52:08;7.26;87.68
69006;SHT31;56061;51.748;19.620;2022-11-03T07:54:41;7.34;87.60
69006;SHT31;56061;51.748;19.620;2022-11-03T07:57:12;7.41;87.50
69006;SHT31;56061;51.748;19.620;2022-11-03T07:59:49;7.46;87.42
69006;SHT31;56061;51.748;19.620;2022-11-03T08:02:32;7.52;87.26
69006;SHT31;56061;51.748;19.620;2022-11-03T08:05:07;7.56;87.23
69006;SHT31;56061;51.748;19.620;2022-11-03T08:07:34;7.61;87.16
69006;SHT31;56061;51.748;19.620;2022-11-03T08:10:00;7.67;87.03
69006;SHT31;56061;51.748;19.620;2022-11-03T08:12:26;7.71;86.99
69006;SHT31;56061;51.748;19.620;2022-11-03T08:14:53;7.78;86.99
69006;SHT31;56061;51.748;19.620;2022-11-03T08:17:19;7.86;86.96
69006;SHT31;56061;51.748;19.620;2022-11-03T08:19:46;7.92;86.82
69006;SHT31;56061;51.748;19.620;2022-11-03T08:22:13;7.99;86.78
69006;SHT31;56061;51.748;19.620;2022-11-03T08:24:39;8.04;86.70
69006;SHT31;56061;51.748;19.620;2022-11-03T08:27:06;8.09;86.60
69006;SHT31;56061;51.748;19.620;2022-11-03T08:29:32;8.13;86.50
69006;SHT31;56061;51.748;19.620;2022-11-03T08:31:59;8.20;86.37
69006;SHT31;56061;51.748;19.620;2022-11-03T08:34:26;8.27;86.31
69006;SHT31;56061;51.748;19.620;2022-11-03T08:36:52;8.35;86.19
69006;SHT31;56061;51.748;19.620;2022-11-03T08:39:18;8.43;85.95
69006;SHT31;56061;51.748;19.620;2022-11-03T08:41:45;8.51;85.80
69006;SHT31;56061;51.748;19.620;2022-11-03T08:44:11;8.59;85.73
69006;SHT31;56061;51.748;19.620;2022-11-03T08:46:38;8.67;85.52
69006;SHT31;56061;51.748;19.620;2022-11-03T08:49:04;8.73;85.34
69006;SHT31;56061;51.748;19.620;2022-11-03T08:51:31;8.79;85.27
69006;SHT31;56061;51.748;19.620;2022-11-03T08:53:57;8.83;85.13
69006;SHT31;56061;51.748;19.620;2022-11-03T08:56:23;8.89;84.95
69006;SHT31;56061;51.748;19.620;2022-11-03T08:58:50;8.92;84.75
69006;SHT31;56061;51.748;19.620;2022-11-03T09:01:16;8.99;84.80
69006;SHT31;56061;51.748;19.620;2022-11-03T09:03:43;9.08;84.76
69006;SHT31;56061;51.748;19.620;2022-11-03T09:06:10;9.18;84.59
69006;SHT31;56061;51.748;19.620;2022-11-03T09:08:36;9.26;84.47
69006;SHT31;56061;51.748;19.620;2022-11-03T09:11:23;9.34;84.30
69006;SHT31;56061;51.748;19.620;2022-11-03T09:13:49;9.41;84.22
69006;SHT31;56061;51.748;19.620;2022-11-03T09:16:16;9.47;84.02
69006;SHT31;56061;51.748;19.620;2022-11-03T09:18:43;9.52;84.09
69006;SHT31;56061;51.748;19.620;2022-11-03T09:21:10;9.57;84.09
69006;SHT31;56061;51.748;19.620;2022-11-03T09:23:36;9.65;84.01
69006;SHT31;56061;51.748;19.620;2022-11-03T09:26:03;9.76;84.00
69006;SHT31;56061;51.748;19.620;2022-11-03T09:28:31;9.88;83.79
69006;SHT31;56061;51.748;19.620;2022-11-03T09:30:58;9.96;83.36
69006;SHT31;56061;51.748;19.620;2022-11-03T09:33:24;10.02;82.94
69006;SHT31;56061;51.748;19.620;2022-11-03T09:35:51;10.11;82.76
69006;SHT31;56061;51.748;19.620;2022-11-03T09:38:17;10.17;82.46
69006;SHT31;56061;51.748;19.620;2022-11-03T09:40:44;10.24;82.40
69006;SHT31;56061;51.748;19.620;2022-11-03T09:43:10;10.32;82.16
69006;SHT31;56061;51.748;19.620;2022-11-03T09:45:37;10.37;81.98
69006;SHT31;56061;51.748;19.620;2022-11-03T09:48:04;10.44;81.68
69006;SHT31;56061;51.748;19.620;2022-11-03T09:50:36;10.47;81.12
69006;SHT31;56061;51.748;19.620;2022-11-03T09:53:03;10.51;81.11
69006;SHT31;56061;51.748;19.620;2022-11-03T09:55:31;10.59;81.12
69006;SHT31;56061;51.748;19.620;2022-11-03T09:58:08;10.64;80.60
69006;SHT31;56061;51.748;19.620;2022-11-03T10:00:41;10.73;80.55
69006;SHT31;56061;51.748;19.620;2022-11-03T10:03:10;10.79;80.43
69006;SHT31;56061;51.748;19.620;2022-11-03T10:05:40;10.85;80.04
69006;SHT31;56061;51.748;19.620;2022-11-03T10:08:10;10.91;79.80
69006;SHT31;56061;51.748;19.620;2022-11-03T10:10:48;10.99;79.58
69006;SHT31;56061;51.748;19.620;2022-11-03T10:16:11;11.09;79.06
69006;SHT31;56061;51.748;19.620;2022-11-03T10:18:43;11.14;78.98
69006;SHT31;56061;51.748;19.620;2022-11-03T10:21:14;11.20;78.74
69006;SHT31;56061;51.748;19.620;2022-11-03T10:23:49;11.24;78.55
69006;SHT31;56061;51.748;19.620;2022-11-03T10:26:16;11.28;78.28
69006;SHT31;56061;51.748;19.620;2022-11-03T10:28:55;11.33;78.15
69006;SHT31;56061;51.748;19.620;2022-11-03T10:31:32;11.40;78.44
69006;SHT31;56061;51.748;19.620;2022-11-03T10:34:02;11.46;78.34
69006;SHT31;56061;51.748;19.620;2022-11-03T10:36:31;11.52;78.36
69006;SHT31;56061;51.748;19.620;2022-11-03T10:38:59;11.59;78.14
69006;SHT31;56061;51.748;19.620;2022-11-03T10:41:55;11.64;78.00
69006;SHT31;56061;51.748;19.620;2022-11-03T10:44:27;11.66;77.91
69006;SHT31;56061;51.748;19.620;2022-11-03T10:46:56;11.71;77.87
69006;SHT31;56061;51.748;19.620;2022-11-03T10:49:29;11.77;77.74
69006;SHT31;56061;51.748;19.620;2022-11-03T10:52:17;11.81;77.10
69006;SHT31;56061;51.748;19.620;2022-11-03T10:54:51;11.86;76.83
69006;SHT31;56061;51.748;19.620;2022-11-03T10:57:21;11.91;76.72
69006;SHT31;56061;51.748;19.620;2022-11-03T10:59:49;11.97;76.53
69006;SHT31;56061;51.748;19.620;2022-11-03T11:02:25;12.02;76.11
69006;SHT31;56061;51.748;19.620;2022-11-03T11:04:57;12.11;76.18
69006;SHT31;56061;51.748;19.620;2022-11-03T11:07:31;12.16;75.73
69006;SHT31;56061;51.748;19.620;2022-11-03T11:10:07;12.21;75.73
69006;SHT31;56061;51.748;19.620;2022-11-03T11:15:57;12.35;75.18
69006;SHT31;56061;51.748;19.620;2022-11-03T11:20:56;12.53;74.73
69006;SHT31;56061;51.748;19.620;2022-11-03T11:23:47;12.63;74.38
69006;SHT31;56061;51.748;19.620;2022-11-03T11:31:35;12.87;73.00
69006;SHT31;56061;51.748;19.620;2022-11-03T11:36:44;13.00;72.49
69006;SHT31;56061;51.748;19.620;2022-11-03T11:44:54;13.20;72.56
69006;SHT31;56061;51.748;19.620;2022-11-03T11:47:27;13.29;72.37
69006;SHT31;56061;51.748;19.620;2022-11-03T11:58:33;13.61;70.27
69006;SHT31;56061;51.748;19.620;2022-11-03T12:01:19;13.66;70.07
69006;SHT31;56061;51.748;19.620;2022-11-03T12:03:56;13.73;69.62
69006;SHT31;56061;51.748;19.620;2022-11-03T12:14:25;13.79;68.89
69006;SHT31;56061;51.748;19.620;2022-11-03T12:19:47;13.88;67.32
69006;SHT31;56061;51.748;19.620;2022-11-03T12:24:52;13.97;67.72
69006;SHT31;56061;51.748;19.620;2022-11-03T12:29:51;13.97;67.29
69006;SHT31;56061;51.748;19.620;2022-11-03T12:32:20;13.94;66.35
69006;SHT31;56061;51.748;19.620;2022-11-03T12:35:03;13.93;66.13
69006;SHT31;56061;51.748;19.620;2022-11-03T12:37:33;13.89;65.99
69006;SHT31;56061;51.748;19.620;2022-11-03T12:40:00;13.85;66.54
69006;SHT31;56061;51.748;19.620;2022-11-03T12:42:26;13.83;66.54
69006;SHT31;56061;51.748;19.620;2022-11-03T12:44:52;13.79;66.02
69006;SHT31;56061;51.748;19.620;2022-11-03T12:47:19;13.71;66.22
69006;SHT31;56061;51.748;19.620;2022-11-03T12:49:46;13.67;66.18
69006;SHT31;56061;51.748;19.620;2022-11-03T12:52:13;13.61;65.59
69006;SHT31;56061;51.748;19.620;2022-11-03T12:54:40;13.53;65.52
69006;SHT31;56061;51.748;19.620;2022-11-03T12:57:07;13.47;65.67
69006;SHT31;56061;51.748;19.620;2022-11-03T12:59:34;13.40;65.45
69006;SHT31;56061;51.748;19.620;2022-11-03T13:02:00;13.31;65.50
69006;SHT31;56061;51.748;19.620;2022-11-03T13:04:27;13.26;65.38
69006;SHT31;56061;51.748;19.620;2022-11-03T13:06:53;13.23;65.07
69006;SHT31;56061;51.748;19.620;2022-11-03T13:09:20;13.18;65.20
69006;SHT31;56061;51.748;19.620;2022-11-03T13:11:46;13.14;65.06
69006;SHT31;56061;51.748;19.620;2022-11-03T13:14:31;13.10;65.27
69006;SHT31;56061;51.748;19.620;2022-11-03T13:16:58;13.05;65.34
69006;SHT31;56061;51.748;19.620;2022-11-03T13:19:24;13.01;65.49
69006;SHT31;56061;51.748;19.620;2022-11-03T13:21:51;12.95;65.26
69006;SHT31;56061;51.748;19.620;2022-11-03T13:24:17;12.92;65.04
69006;SHT31;56061;51.748;19.620;2022-11-03T13:26:44;12.88;65.22
69006;SHT31;56061;51.748;19.620;2022-11-03T13:29:10;12.83;65.34
69006;SHT31;56061;51.748;19.620;2022-11-03T13:31:37;12.79;65.70
69006;SHT31;56061;51.748;19.620;2022-11-03T13:34:03;12.77;65.87
69006;SHT31;56061;51.748;19.620;2022-11-03T13:36:30;12.75;65.86
69006;SHT31;56061;51.748;19.620;2022-11-03T13:38:56;12.72;65.60
69006;SHT31;56061;51.748;19.620;2022-11-03T13:41:23;12.71;65.59
69006;SHT31;56061;51.748;19.620;2022-11-03T13:43:49;12.69;65.61
69006;SHT31;56061;51.748;19.620;2022-11-03T13:46:16;12.67;65.72
69006;SHT31;56061;51.748;19.620;2022-11-03T13:48:42;12.65;65.80
69006;SHT31;56061;51.748;19.620;2022-11-03T13:51:29;12.67;65.92
69006;SHT31;56061;51.748;19.620;2022-11-03T13:53:55;12.69;65.95
69006;SHT31;56061;51.748;19.620;2022-11-03T13:56:41;12.71;66.05
69006;SHT31;56061;51.748;19.620;2022-11-03T13:59:28;12.72;65.84
69006;SHT31;56061;51.748;19.620;2022-11-03T14:01:54;12.68;65.39
69006;SHT31;56061;51.748;19.620;2022-11-03T14:04:41;12.63;65.10
69006;SHT31;56061;51.748;19.620;2022-11-03T14:07:13;12.54;64.41
69006;SHT31;56061;51.748;19.620;2022-11-03T14:09:39;12.45;65.07
69006;SHT31;56061;51.748;19.620;2022-11-03T14:12:06;12.37;65.47
69006;SHT31;56061;51.748;19.620;2022-11-03T14:14:51;12.29;65.81
69006;SHT31;56061;51.748;19.620;2022-11-03T14:17:18;12.17;65.92
69006;SHT31;56061;51.748;19.620;2022-11-03T14:19:44;12.05;66.27
69006;SHT31;56061;51.748;19.620;2022-11-03T14:22:17;11.95;66.64
69006;SHT31;56061;51.748;19.620;2022-11-03T14:24:47;11.85;67.16
69006;SHT31;56061;51.748;19.620;2022-11-03T14:27:13;11.76;67.79
69006;SHT31;56061;51.748;19.620;2022-11-03T14:29:41;11.65;68.02
69006;SHT31;56061;51.748;19.620;2022-11-03T14:32:09;11.55;68.36
69006;SHT31;56061;51.748;19.620;2022-11-03T14:34:36;11.44;68.97
69006;SHT31;56061;51.748;19.620;2022-11-03T14:37:04;11.35;69.41
69006;SHT31;56061;51.748;19.620;2022-11-03T14:39:31;11.24;69.66
69006;SHT31;56061;51.748;19.620;2022-11-03T14:41:57;11.14;69.74
69006;SHT31;56061;51.748;19.620;2022-11-03T14:44:34;11.06;69.88
69006;SHT31;56061;51.748;19.620;2022-11-03T14:47:04;10.94;70.08
69006;SHT31;56061;51.748;19.620;2022-11-03T14:49:34;10.82;70.18
69006;SHT31;56061;51.748;19.620;2022-11-03T14:52:05;10.70;70.35
69006;SHT31;56061;51.748;19.620;2022-11-03T14:54:33;10.59;70.52
69006;SHT31;56061;51.748;19.620;2022-11-03T14:57:01;10.46;70.69
69006;SHT31;56061;51.748;19.620;2022-11-03T14:59:29;10.31;70.90
69006;SHT31;56061;51.748;19.620;2022-11-03T15:01:56;10.15;71.01
69006;SHT31;56061;51.748;19.620;2022-11-03T15:04:24;9.99;71.34
69006;SHT31;56061;51.748;19.620;2022-11-03T15:06:51;9.86;71.72
69006;SHT31;56061;51.748;19.620;2022-11-03T15:09:17;9.72;71.96
69006;SHT31;56061;51.748;19.620;2022-11-03T15:11:45;9.60;72.28
69006;SHT31;56061;51.748;19.620;2022-11-03T15:14:12;9.49;72.51
69006;SHT31;56061;51.748;19.620;2022-11-03T15:16:39;9.40;72.81
69006;SHT31;56061;51.748;19.620;2022-11-03T15:19:06;9.32;73.09
69006;SHT31;56061;51.748;19.620;2022-11-03T15:21:34;9.24;73.30
69006;SHT31;56061;51.748;19.620;2022-11-03T15:24:00;9.18;73.49
69006;SHT31;56061;51.748;19.620;2022-11-03T15:26:47;9.10;73.64
69006;SHT31;56061;51.748;19.620;2022-11-03T15:29:14;9.02;73.75
69006;SHT31;56061;51.748;19.620;2022-11-03T15:31:40;8.92;73.76
69006;SHT31;56061;51.748;19.620;2022-11-03T15:34:13;8.80;73.78
69006;SHT31;56061;51.748;19.620;2022-11-03T15:36:39;8.66;74.09
69006;SHT31;56061;51.748;19.620;2022-11-03T15:39:06;8.53;74.44
69006;SHT31;56061;51.748;19.620;2022-11-03T15:41:32;8.43;74.81
69006;SHT31;56061;51.748;19.620;2022-11-03T15:43:59;8.31;75.05
69006;SHT31;56061;51.748;19.620;2022-11-03T15:46:25;8.22;75.35
69006;SHT31;56061;51.748;19.620;2022-11-03T15:48:52;8.13;75.48
69006;SHT31;56061;51.748;19.620;2022-11-03T15:51:19;8.07;75.73
69006;SHT31;56061;51.748;19.620;2022-11-03T15:53:46;8.02;75.95
69006;SHT31;56061;51.748;19.620;2022-11-03T15:56:12;7.99;76.27
69006;SHT31;56061;51.748;19.620;2022-11-03T15:58:39;7.98;76.49
69006;SHT31;56061;51.748;19.620;2022-11-03T16:01:06;7.96;76.48
69006;SHT31;56061;51.748;19.620;2022-11-03T16:03:32;7.90;76.58
69006;SHT31;56061;51.748;19.620;2022-11-03T16:05:59;7.86;76.67
69006;SHT31;56061;51.748;19.620;2022-11-03T16:08:25;7.81;76.80
69006;SHT31;56061;51.748;19.620;2022-11-03T16:10:52;7.75;76.83
69006;SHT31;56061;51.748;19.620;2022-11-03T16:13:23;7.67;76.87
69006;SHT31;56061;51.748;19.620;2022-11-03T16:15:50;7.62;76.93
69006;SHT31;56061;51.748;19.620;2022-11-03T16:18:19;7.59;77.01
69006;SHT31;56061;51.748;19.620;2022-11-03T16:20:46;7.56;76.97
69006;SHT31;56061;51.748;19.620;2022-11-03T16:23:12;7.52;77.03
69006;SHT31;56061;51.748;19.620;2022-11-03T16:25:39;7.49;76.99
69006;SHT31;56061;51.748;19.620;2022-11-03T16:28:06;7.43;76.80
69006;SHT31;56061;51.748;19.620;2022-11-03T16:30:33;7.33;76.87
69006;SHT31;56061;51.748;19.620;2022-11-03T16:33:00;7.24;77.14
69006;SHT31;56061;51.748;19.620;2022-11-03T16:35:27;7.16;77.31
69006;SHT31;56061;51.748;19.620;2022-11-03T16:37:54;7.08;77.50
69006;SHT31;56061;51.748;19.620;2022-11-03T16:40:21;7.01;77.69
69006;SHT31;56061;51.748;19.620;2022-11-03T16:42:48;6.94;77.98
69006;SHT31;56061;51.748;19.620;2022-11-03T16:45:19;6.91;78.20
69006;SHT31;56061;51.748;19.620;2022-11-03T16:47:48;6.89;78.38
69006;SHT31;56061;51.748;19.620;2022-11-03T16:50:16;6.89;78.49
69006;SHT31;56061;51.748;19.620;2022-11-03T16:52:44;6.88;78.63
69006;SHT31;56061;51.748;19.620;2022-11-03T16:55:13;6.88;78.77
69006;SHT31;56061;51.748;19.620;2022-11-03T16:57:42;6.89;78.94
69006;SHT31;56061;51.748;19.620;2022-11-03T17:00:10;6.88;78.85
69006;SHT31;56061;51.748;19.620;2022-11-03T17:02:45;6.85;78.85
69006;SHT31;56061;51.748;19.620;2022-11-03T17:05:13;6.81;78.95
69006;SHT31;56061;51.748;19.620;2022-11-03T17:07:42;6.78;79.00
69006;SHT31;56061;51.748;19.620;2022-11-03T17:10:17;6.74;79.08
69006;SHT31;56061;51.748;19.620;2022-11-03T17:12:43;6.70;79.08
69006;SHT31;56061;51.748;19.620;2022-11-03T17:15:10;6.66;79.10
69006;SHT31;56061;51.748;19.620;2022-11-03T17:17:36;6.65;79.11
69006;SHT31;56061;51.748;19.620;2022-11-03T17:20:03;6.64;79.24
69006;SHT31;56061;51.748;19.620;2022-11-03T17:22:31;6.66;79.30
69006;SHT31;56061;51.748;19.620;2022-11-03T17:24:58;6.66;79.29
69006;SHT31;56061;51.748;19.620;2022-11-03T17:27:25;6.65;79.29